Time;durP1;ratioP1;P1;durP2;ratioP2;P2;SDS_P1;SDS_P2;PMS_P1;PMS_P2;Temp;Humidity;BMP_temperature;BMP_pressure;BME280_temperature;BME280_humidity;BME280_pressure;Samples;Min_cycle;Max_cycle;Signal;HPM_P1;HPM_P2
2021/07/18 00:01:45;;;;;;;15.68;11.45;;;;;;;24.77;62.96;100052.39;1755502;80;21115;-62
2021/07/18 00:04:11;;;;;;;17.20;10.98;;;;;;;24.74;63.06;100048.80;1737025;80;22121;-63
2021/07/18 00:06:38;;;;;;;13.85;10.13;;;;;;;24.71;62.90;100051.92;1755630;79;21074;-63
2021/07/18 00:09:06;;;;;;;18.40;11.15;;;;;;;24.64;63.20;100051.47;1760897;79;21078;-62
2021/07/18 00:11:33;;;;;;;16.32;11.75;;;;;;;24.58;63.27;100049.69;1701139;83;21076;-62
2021/07/18 00:13:59;;;;;;;14.30;11.00;;;;;;;24.59;63.32;100049.16;1758632;79;21064;-62
2021/07/18 00:16:25;;;;;;;16.57;10.15;;;;;;;24.56;63.36;100049.09;1737674;80;21518;-63
2021/07/18 00:18:52;;;;;;;13.90;10.85;;;;;;;24.50;63.51;100043.76;1763757;80;21090;-63
2021/07/18 00:21:19;;;;;;;14.10;11.28;;;;;;;24.45;63.52;100040.38;1760229;80;22142;-63
2021/07/18 00:23:46;;;;;;;14.80;11.08;;;;;;;24.39;63.57;100035.35;1765449;79;21097;-63
2021/07/18 00:26:13;;;;;;;14.50;10.00;;;;;;;24.38;63.65;100035.60;1763735;80;21051;-63
2021/07/18 00:28:39;;;;;;;14.00;9.88;;;;;;;24.39;63.54;100029.97;1758690;80;21118;-63
2021/07/18 00:31:06;;;;;;;12.75;9.35;;;;;;;24.43;63.46;100028.50;1758223;79;21101;-63
2021/07/18 00:33:32;;;;;;;17.75;11.25;;;;;;;24.43;63.51;100025.81;1762327;80;22079;-63
2021/07/18 00:35:59;;;;;;;15.85;9.68;;;;;;;24.43;63.51;100025.81;1762399;80;21003;-63
2021/07/18 00:38:26;;;;;;;15.65;10.10;;;;;;;24.42;63.55;100017.97;1766907;79;21507;-63
2021/07/18 00:40:54;;;;;;;15.53;10.28;;;;;;;24.41;63.54;100013.63;1761876;80;21137;-63
2021/07/18 00:43:20;;;;;;;14.75;10.53;;;;;;;24.43;63.57;100015.59;1765233;80;21612;-63
2021/07/18 00:45:46;;;;;;;15.43;9.73;;;;;;;24.47;63.44;100009.52;1765642;80;21495;-63
2021/07/18 00:48:13;;;;;;;14.40;9.73;;;;;;;24.55;63.23;100006.28;1756467;80;21090;-63
2021/07/18 00:50:43;;;;;;;18.50;11.35;;;;;;;24.59;63.25;100005.59;1763042;80;21066;-63
2021/07/18 00:53:08;;;;;;;17.37;10.28;;;;;;;24.59;63.27;100005.59;1765289;80;21062;-63
2021/07/18 00:55:39;;;;;;;14.20;9.93;;;;;;;24.54;63.58;100011.33;1770353;79;21482;-63
2021/07/18 00:58:05;;;;;;;15.08;10.25;;;;;;;24.49;63.59;100018.71;1758209;80;21751;-63
2021/07/18 01:00:32;;;;;;;18.32;10.20;;;;;;;24.47;63.51;100006.02;1764140;80;21110;-63
2021/07/18 01:02:58;;;;;;;12.75;9.55;;;;;;;24.43;63.41;100006.17;1740790;80;21093;-63
2021/07/18 01:05:25;;;;;;;14.53;9.80;;;;;;;24.39;63.46;100006.30;1766251;79;21113;-63
2021/07/18 01:07:51;;;;;;;15.25;9.25;;;;;;;24.38;63.56;100007.37;1761639;80;21520;-63
2021/07/18 01:10:18;;;;;;;15.38;10.05;;;;;;;24.42;63.74;100011.24;1732005;80;21146;-62
2021/07/18 01:12:45;;;;;;;15.08;10.00;;;;;;;24.44;63.80;99998.39;1753364;80;21680;-62
2021/07/18 01:15:13;;;;;;;18.52;10.70;;;;;;;24.44;64.01;100003.27;1753717;79;21364;-62
2021/07/18 01:17:40;;;;;;;15.32;10.32;;;;;;;24.42;64.20;99997.80;1749313;80;21075;-63
2021/07/18 01:20:08;;;;;;;16.48;11.55;;;;;;;24.38;64.26;99995.27;1745569;80;21119;-63
2021/07/18 01:22:35;;;;;;;13.45;10.03;;;;;;;24.36;64.74;99991.45;1752105;80;21111;-62
2021/07/18 01:25:07;;;;;;;15.63;9.88;;;;;;;24.36;64.59;99996.84;1733795;79;21019;-62
2021/07/18 01:27:34;;;;;;;14.73;9.98;;;;;;;24.35;64.12;100001.91;1752904;79;21064;-62
2021/07/18 01:30:02;;;;;;;12.43;9.88;;;;;;;24.32;64.28;100005.03;1754830;79;21067;-62
2021/07/18 01:32:28;;;;;;;14.93;10.38;;;;;;;24.31;64.36;100003.41;1757575;80;21050;-62
2021/07/18 01:34:56;;;;;;;13.68;10.13;;;;;;;24.31;64.51;99999.38;1744362;80;21819;-62
2021/07/18 01:37:22;;;;;;;13.43;10.35;;;;;;;24.29;64.32;99999.59;1757078;79;21070;-62
2021/07/18 01:39:50;;;;;;;19.07;11.38;;;;;;;24.29;64.05;100003.63;1757363;79;21138;-62
2021/07/18 01:42:17;;;;;;;14.45;10.35;;;;;;;24.27;64.04;99995.47;1755308;79;21054;-62
2021/07/18 01:44:43;;;;;;;17.45;10.95;;;;;;;24.27;64.00;99992.78;1757376;80;21542;-62
2021/07/18 01:47:10;;;;;;;14.55;10.30;;;;;;;24.30;64.02;99991.81;1748291;80;21139;-62
2021/07/18 01:49:36;;;;;;;15.68;10.23;;;;;;;24.36;64.00;99986.08;1731264;80;21645;-63
2021/07/18 01:52:04;;;;;;;15.23;9.83;;;;;;;24.41;64.01;99990.27;1759140;80;21034;-63
2021/07/18 01:54:30;;;;;;;14.75;11.05;;;;;;;24.45;63.99;99991.45;1748875;80;21058;-63
2021/07/18 01:56:57;;;;;;;13.78;10.45;;;;;;;24.45;64.13;100003.55;1751368;80;21067;-63
2021/07/18 01:59:23;;;;;;;12.05;10.15;;;;;;;24.43;64.20;100000.80;1759589;79;21114;-62
2021/07/18 02:01:50;;;;;;;13.78;9.78;;;;;;;24.41;64.33;100006.90;1756158;80;21122;-63
2021/07/18 02:04:17;;;;;;;17.25;10.13;;;;;;;24.36;64.55;100009.44;1733162;80;21114;-62
2021/07/18 02:06:43;;;;;;;15.83;10.23;;;;;;;24.35;64.79;100005.12;1733757;82;21619;-62
2021/07/18 02:09:10;;;;;;;12.80;10.05;;;;;;;24.38;64.92;100006.84;1750412;80;21082;-62
2021/07/18 02:11:37;;;;;;;14.47;10.50;;;;;;;24.45;64.95;100006.77;1749810;81;22477;-62
2021/07/18 02:14:05;;;;;;;11.48;9.48;;;;;;;24.48;65.10;100012.52;1746651;81;21547;-62
2021/07/18 02:16:31;;;;;;;11.90;10.03;;;;;;;24.47;65.34;100012.73;1752620;81;21094;-63
2021/07/18 02:19:09;;;;;;;15.80;11.97;;;;;;;24.47;65.52;100011.39;1744726;81;21070;-63
2021/07/18 02:21:38;;;;;;;15.05;10.25;;;;;;;24.47;65.76;100019.46;1724037;81;20996;-64
2021/07/18 02:24:06;;;;;;;17.57;11.03;;;;;;;24.47;66.04;100011.39;1744464;81;21121;-63
2021/07/18 02:26:33;;;;;;;14.65;10.38;;;;;;;24.51;66.27;100008.58;1755977;81;21055;-63
2021/07/18 02:29:00;;;;;;;17.92;10.50;;;;;;;24.54;66.42;100012.67;1728358;81;21075;-63
2021/07/18 02:31:28;;;;;;;16.57;10.95;;;;;;;24.58;66.53;100009.34;1757993;81;21086;-63
2021/07/18 02:33:54;;;;;;;15.83;11.30;;;;;;;24.61;66.62;100004.86;1752447;81;21606;-63
2021/07/18 02:36:21;;;;;;;13.85;10.85;;;;;;;24.61;66.66;100006.71;1749973;81;21191;-63
2021/07/18 02:38:48;;;;;;;17.15;11.73;;;;;;;24.59;66.81;100012.84;1753505;81;21105;-63
2021/07/18 02:41:14;;;;;;;15.43;10.63;;;;;;;24.60;66.86;100007.24;1748394;81;21086;-63
2021/07/18 02:43:41;;;;;;;21.00;11.10;;;;;;;24.68;66.91;100008.83;1748764;81;21110;-63
2021/07/18 02:46:07;;;;;;;15.72;11.33;;;;;;;24.74;66.91;99999.83;1749365;81;21078;-63
2021/07/18 02:48:38;;;;;;;23.20;12.18;;;;;;;24.79;66.79;100005.89;1720505;81;21061;-63
2021/07/18 02:51:04;;;;;;;23.62;12.65;;;;;;;24.80;66.70;100001.63;1752679;81;21067;-63
2021/07/18 02:53:31;;;;;;;21.52;11.25;;;;;;;24.78;66.73;99998.86;1752259;81;21450;-63
2021/07/18 02:55:57;;;;;;;22.55;12.20;;;;;;;24.79;66.38;99993.78;1747239;81;21581;-63
2021/07/18 02:58:24;;;;;;;21.75;13.05;;;;;;;24.76;65.99;99999.61;1751338;81;21055;-63
2021/07/18 03:00:51;;;;;;;25.15;13.18;;;;;;;24.73;66.16;100017.04;1727287;81;21106;-63
2021/07/18 03:03:20;;;;;;;18.27;11.10;;;;;;;24.75;66.32;100006.87;1742454;81;21344;-66
2021/07/18 03:05:47;;;;;;;20.70;11.70;;;;;;;24.78;66.72;100015.84;1761632;81;21596;-68
2021/07/18 03:08:15;;;;;;;17.50;12.68;;;;;;;24.83;66.67;100008.41;1756667;80;21078;-62
2021/07/18 03:10:44;;;;;;;19.12;12.20;;;;;;;24.83;66.25;100003.88;1757392;79;21071;-61
2021/07/18 03:13:12;;;;;;;15.30;11.40;;;;;;;24.84;66.02;100004.69;1767468;79;21090;-62
2021/07/18 03:15:38;;;;;;;17.82;11.55;;;;;;;24.84;65.85;100007.38;1765856;80;21023;-61
2021/07/18 03:18:06;;;;;;;17.75;10.68;;;;;;;24.86;65.93;100001.23;1754403;80;21058;-61
2021/07/18 03:20:33;;;;;;;25.40;12.35;;;;;;;24.94;65.77;100002.28;1747331;79;21513;-61
2021/07/18 03:22:59;;;;;;;24.25;12.00;;;;;;;25.03;65.85;100011.70;1749282;80;21099;-61
2021/07/18 03:25:25;;;;;;;16.87;11.53;;;;;;;25.10;65.54;100008.08;1768319;79;21077;-60
2021/07/18 03:27:52;;;;;;;17.55;11.33;;;;;;;25.10;65.49;100006.73;1769676;79;21122;-62
2021/07/18 03:30:20;;;;;;;14.13;9.90;;;;;;;25.09;65.23;100008.61;1749370;80;21090;-64
2021/07/18 03:32:47;;;;;;;19.27;11.05;;;;;;;25.04;65.55;100005.25;1748694;80;21082;-60
2021/07/18 03:35:13;;;;;;;19.52;11.33;;;;;;;25.04;65.39;100008.47;1742445;81;21098;-59
2021/07/18 03:37:40;;;;;;;16.23;10.25;;;;;;;25.08;65.30;100008.30;1750056;80;21844;-60
2021/07/18 03:40:13;;;;;;;17.12;11.33;;;;;;;25.08;65.30;100009.64;1765957;79;21534;-60
2021/07/18 03:42:40;;;;;;;16.32;10.40;;;;;;;25.11;64.92;100011.88;1770283;80;21079;-59
2021/07/18 03:45:08;;;;;;;18.30;12.35;;;;;;;25.09;65.20;100009.14;1763657;79;21066;-60
2021/07/18 03:47:35;;;;;;;19.32;12.05;;;;;;;25.08;65.15;100007.48;1761948;79;21532;-60
2021/07/18 03:50:03;;;;;;;17.17;11.40;;;;;;;25.07;65.06;100004.52;1758145;79;21331;-60
2021/07/18 03:52:29;;;;;;;14.73;10.25;;;;;;;25.09;64.87;100007.27;1740203;80;21118;-62
2021/07/18 03:54:56;;;;;;;15.48;10.70;;;;;;;25.13;64.45;100007.63;1747069;80;21150;-60
2021/07/18 03:57:22;;;;;;;15.08;10.50;;;;;;;25.13;64.47;100003.08;1755838;80;21078;-69
2021/07/18 03:59:50;;;;;;;16.85;11.05;;;;;;;25.18;64.47;99999.68;1756180;80;21081;-66
2021/07/18 04:02:18;;;;;;;20.43;12.20;;;;;;;25.22;64.71;100003.58;1757544;80;21132;-68
2021/07/18 04:04:44;;;;;;;14.28;11.70;;;;;;;25.24;64.77;100005.51;1739641;80;21086;-66
2021/07/18 04:07:11;;;;;;;18.25;11.45;;;;;;;25.26;64.20;100010.16;1754107;79;21094;-67
2021/07/18 04:09:38;;;;;;;20.77;11.10;;;;;;;25.25;64.00;100010.36;1693903;82;21089;-66
2021/07/18 04:12:05;;;;;;;17.62;11.53;;;;;;;25.25;64.05;100011.20;1754634;79;21102;-66
2021/07/18 04:14:33;;;;;;;17.07;12.10;;;;;;;25.35;64.20;100006.11;1742611;80;21091;-68
2021/07/18 04:16:59;;;;;;;18.52;12.07;;;;;;;25.47;63.62;100012.03;1746260;80;21007;-66
2021/07/18 04:19:26;;;;;;;21.48;12.20;;;;;;;25.52;63.24;100018.39;1759719;79;21536;-66
2021/07/18 04:21:53;;;;;;;18.62;12.45;;;;;;;25.54;63.21;100019.52;1747629;80;21063;-62
2021/07/18 04:24:19;;;;;;;17.17;12.75;;;;;;;25.54;63.15;100020.86;1767064;79;21924;-58
2021/07/18 04:26:47;;;;;;;15.55;11.50;;;;;;;25.51;63.19;100019.43;1744411;80;21131;-60
2021/07/18 04:29:13;;;;;;;19.60;12.85;;;;;;;25.50;63.44;100019.16;1759011;80;21114;-60
2021/07/18 04:31:41;;;;;;;17.12;11.65;;;;;;;25.54;63.68;100014.13;1755168;79;21309;-60
2021/07/18 04:34:08;;;;;;;19.67;11.55;;;;;;;25.59;63.53;100007.52;1751895;80;21090;-60
2021/07/18 04:36:34;;;;;;;16.17;11.75;;;;;;;25.64;63.55;100008.98;1755158;79;21033;-63
2021/07/18 04:39:01;;;;;;;18.60;12.18;;;;;;;25.68;63.47;100002.07;1748724;80;21100;-64
2021/07/18 04:41:28;;;;;;;21.77;12.33;;;;;;;25.75;63.20;100001.97;1747770;79;21061;-65
2021/07/18 04:43:54;;;;;;;18.05;12.70;;;;;;;25.77;62.96;99995.30;1764161;80;21093;-65
2021/07/18 04:46:20;;;;;;;18.70;13.65;;;;;;;25.80;62.95;99997.23;1748457;80;21051;-65
2021/07/18 04:48:47;;;;;;;14.65;11.30;;;;;;;25.84;62.68;99999.74;1749346;80;21083;-65
2021/07/18 04:51:15;;;;;;;17.12;12.15;;;;;;;25.90;62.44;100006.91;1749724;80;21127;-65
2021/07/18 04:53:41;;;;;;;17.23;12.75;;;;;;;25.98;62.52;100006.59;1755713;79;21530;-65
2021/07/18 04:56:08;;;;;;;19.77;13.32;;;;;;;26.06;62.54;100007.59;1759059;79;21067;-65
2021/07/18 04:58:34;;;;;;;19.52;12.68;;;;;;;26.07;62.47;100014.61;1676566;84;21716;-63
2021/07/18 05:01:01;;;;;;;15.18;11.90;;;;;;;26.06;62.50;100017.03;1757326;79;21066;-66
2021/07/18 05:03:27;;;;;;;20.85;13.20;;;;;;;26.05;62.35;100006.48;1747490;80;21045;-64
2021/07/18 05:05:54;;;;;;;19.55;13.55;;;;;;;26.06;62.55;100004.91;1748386;80;21103;-63
2021/07/18 05:08:20;;;;;;;18.32;12.98;;;;;;;26.11;62.46;100011.75;1743547;80;21074;-61
2021/07/18 05:10:49;;;;;;;17.57;13.40;;;;;;;26.21;61.93;100012.52;1757422;79;21093;-61
2021/07/18 05:13:15;;;;;;;18.30;13.58;;;;;;;26.26;61.87;100006.41;1771014;79;21066;-65
2021/07/18 05:15:41;;;;;;;17.15;12.82;;;;;;;26.31;62.20;100015.45;1770484;79;21628;-63
2021/07/18 05:18:14;;;;;;;18.77;13.62;;;;;;;26.34;61.92;100022.23;1762371;80;21105;-63
2021/07/18 05:20:42;;;;;;;19.50;12.80;;;;;;;26.37;62.07;100024.45;1750480;80;20927;-64
2021/07/18 05:23:11;;;;;;;21.73;13.48;;;;;;;26.39;62.18;100026.38;1772777;79;21041;-64
2021/07/18 05:25:37;;;;;;;19.55;12.65;;;;;;;26.40;62.00;100023.99;1751329;80;21571;-64
2021/07/18 05:28:05;;;;;;;22.35;13.05;;;;;;;26.45;61.94;100020.59;1735067;82;21054;-63
2021/07/18 05:30:31;;;;;;;18.45;13.48;;;;;;;26.49;62.34;100015.00;1761305;79;21576;-62
2021/07/18 05:32:57;;;;;;;19.48;13.43;;;;;;;26.53;62.41;100018.88;1760173;79;21157;-63
2021/07/18 05:35:24;;;;;;;18.42;13.83;;;;;;;26.54;62.31;100017.80;1762759;80;21514;-63
2021/07/18 05:37:50;;;;;;;18.02;15.15;;;;;;;26.54;61.98;100014.30;1767647;80;21109;-62
2021/07/18 05:40:17;;;;;;;24.15;14.85;;;;;;;26.53;61.88;100016.69;1762256;80;21218;-60
2021/07/18 05:42:44;;;;;;;17.75;13.32;;;;;;;26.51;61.60;100015.58;1751504;80;21575;-62
2021/07/18 05:45:12;;;;;;;18.42;13.38;;;;;;;26.54;61.79;100014.30;1773318;80;21106;-61
2021/07/18 05:47:40;;;;;;;23.02;14.43;;;;;;;26.62;61.60;100015.28;1761198;80;21585;-60
2021/07/18 05:50:08;;;;;;;15.45;13.83;;;;;;;26.68;61.77;100021.12;1760257;80;21117;-60
2021/07/18 05:52:35;;;;;;;16.50;13.15;;;;;;;26.73;61.40;100013.63;1736662;80;21092;-60
2021/07/18 05:55:03;;;;;;;16.48;14.65;;;;;;;26.72;61.24;100012.83;1763298;80;20995;-60
2021/07/18 05:57:30;;;;;;;20.77;13.05;;;;;;;26.72;61.23;100007.97;1764209;80;21101;-60
2021/07/18 05:59:56;;;;;;;22.20;13.80;;;;;;;26.74;61.56;100010.70;1763392;80;21533;-61
2021/07/18 06:02:23;;;;;;;20.75;13.72;;;;;;;26.81;61.80;100015.42;1764004;80;21054;-60
2021/07/18 06:04:49;;;;;;;22.45;14.40;;;;;;;26.91;61.77;100007.25;1737406;80;21211;-60
2021/07/18 06:07:16;;;;;;;16.85;13.32;;;;;;;27.02;61.37;100013.15;1754738;80;21117;-61
2021/07/18 06:09:43;;;;;;;19.23;14.07;;;;;;;27.13;61.27;100017.66;1762802;80;21518;-61
2021/07/18 06:12:11;;;;;;;18.05;14.35;;;;;;;27.20;61.29;100017.00;1761000;79;21079;-61
2021/07/18 06:14:39;;;;;;;17.55;13.18;;;;;;;27.27;61.38;100021.42;1754371;79;22340;-61
2021/07/18 06:17:07;;;;;;;20.32;13.88;;;;;;;27.32;61.07;100022.89;1749277;79;21878;-61
2021/07/18 06:19:33;;;;;;;17.90;13.13;;;;;;;27.38;61.20;100024.63;1748729;79;21048;-61
2021/07/18 06:22:00;;;;;;;20.40;13.50;;;;;;;27.48;60.87;100022.11;1752719;79;22010;-61
2021/07/18 06:25:23;;;;;;;18.00;14.15;;;;;;;27.72;60.81;100016.56;1786178;79;22763;-60
2021/07/18 06:27:49;;;;;;;24.23;14.55;;;;;;;27.78;60.54;100019.10;1747902;80;21125;-60
2021/07/18 06:30:16;;;;;;;20.57;13.48;;;;;;;27.84;60.31;100032.19;1740013;80;21123;-63
2021/07/18 06:32:43;;;;;;;15.68;13.30;;;;;;;27.86;59.89;100029.23;1731836;81;21092;-60
2021/07/18 06:35:11;;;;;;;15.55;12.68;;;;;;;27.86;59.83;100029.23;1748303;80;21109;-60
2021/07/18 06:37:37;;;;;;;16.75;13.03;;;;;;;27.85;59.65;100031.64;1747421;80;21070;-62
2021/07/18 06:40:06;;;;;;;18.00;14.85;;;;;;;27.84;59.58;100024.59;1731628;80;21065;-60
2021/07/18 06:42:33;;;;;;;17.62;13.88;;;;;;;27.86;59.37;100028.70;1748154;80;21125;-59
2021/07/18 06:45:00;;;;;;;16.40;13.45;;;;;;;27.93;59.07;100032.08;1741620;81;21077;-59
2021/07/18 06:47:27;;;;;;;17.95;13.15;;;;;;;27.98;59.29;100032.16;1732625;81;21045;-59
2021/07/18 06:49:57;;;;;;;17.23;13.72;;;;;;;28.00;59.18;100027.05;1749596;81;21043;-59
2021/07/18 06:52:26;;;;;;;18.77;13.95;;;;;;;28.02;59.30;100025.72;1747256;81;21105;-59
2021/07/18 06:54:53;;;;;;;17.57;13.78;;;;;;;28.06;59.33;100020.63;1751288;81;22332;-60
2021/07/18 06:57:20;;;;;;;18.75;13.45;;;;;;;28.11;59.32;100016.13;1729290;81;21058;-60
2021/07/18 06:59:47;;;;;;;16.65;12.88;;;;;;;28.21;59.37;100022.23;1744849;80;21549;-60
2021/07/18 07:02:14;;;;;;;15.78;13.13;;;;;;;28.32;58.97;100024.53;1753497;80;21043;-60
2021/07/18 07:04:41;;;;;;;19.00;14.85;;;;;;;28.38;58.29;100022.19;1747746;80;21510;-60
2021/07/18 07:07:09;;;;;;;18.77;14.13;;;;;;;28.39;58.26;100019.75;1750114;80;21094;-60
2021/07/18 07:09:36;;;;;;;15.78;13.08;;;;;;;28.42;58.24;100021.16;1746615;80;21132;-60
2021/07/18 07:12:04;;;;;;;21.48;13.28;;;;;;;28.46;58.35;100031.23;1751861;80;21035;-60
2021/07/18 07:14:30;;;;;;;15.50;13.25;;;;;;;28.50;58.34;100024.24;1752092;81;21023;-59
2021/07/18 07:16:57;;;;;;;18.30;12.93;;;;;;;28.53;58.03;100026.45;1721424;81;21098;-60
2021/07/18 07:19:23;;;;;;;20.27;13.48;;;;;;;28.55;57.99;100027.56;1732216;81;21141;-59
2021/07/18 07:21:50;;;;;;;16.90;12.23;;;;;;;28.57;58.11;100026.80;1751619;81;21076;-60
2021/07/18 07:24:16;;;;;;;17.20;12.40;;;;;;;28.63;58.33;100023.61;1725817;81;21071;-59
2021/07/18 07:26:43;;;;;;;15.35;12.03;;;;;;;28.72;58.04;100031.05;1748177;80;21594;-60
2021/07/18 07:29:09;;;;;;;17.57;13.53;;;;;;;28.80;58.09;100023.03;1750205;81;21134;-60
2021/07/18 07:31:36;;;;;;;15.55;12.18;;;;;;;28.86;58.30;100030.13;1716327;81;21066;-60
2021/07/18 07:34:03;;;;;;;15.00;12.45;;;;;;;28.94;57.91;100036.19;1752334;81;21035;-60
2021/07/18 07:36:30;;;;;;;17.95;12.68;;;;;;;29.01;57.84;100031.38;1752073;81;20983;-60
2021/07/18 07:38:56;;;;;;;15.23;12.43;;;;;;;29.06;57.67;100039.02;1744048;81;21058;-59
2021/07/18 07:41:23;;;;;;;15.03;13.43;;;;;;;29.09;57.41;100033.64;1749172;81;21363;-60
2021/07/18 07:43:56;;;;;;;18.05;13.15;;;;;;;29.12;57.74;100033.66;1748394;81;21872;-59
2021/07/18 07:46:19;;;;;;;16.77;12.73;;;;;;;29.18;57.51;100033.48;1751479;81;21719;-60
2021/07/18 07:48:45;;;;;;;15.45;13.22;;;;;;;29.26;57.05;100037.09;1746436;81;21062;-60
2021/07/18 07:51:12;;;;;;;19.62;12.90;;;;;;;29.32;57.06;100036.63;1751967;81;21077;-60
2021/07/18 07:53:38;;;;;;;19.85;12.98;;;;;;;29.39;57.08;100030.46;1747528;81;21058;-60
2021/07/18 07:56:05;;;;;;;15.63;12.63;;;;;;;29.48;57.09;100032.16;1723916;81;21169;-60
2021/07/18 07:58:31;;;;;;;17.12;12.90;;;;;;;29.56;56.96;100026.28;1723882;81;21058;-60
2021/07/18 08:00:57;;;;;;;16.12;12.20;;;;;;;29.62;56.48;100036.61;1747359;81;21071;-59
2021/07/18 08:03:24;;;;;;;18.25;13.00;;;;;;;29.66;56.20;100035.05;1726683;81;21180;-60
2021/07/18 08:05:51;;;;;;;16.23;12.18;;;;;;;29.69;54.98;100034.53;1734394;81;21038;-60
2021/07/18 08:08:17;;;;;;;16.95;11.57;;;;;;;29.73;54.49;100032.11;1746401;81;21109;-60
2021/07/18 08:10:43;;;;;;;12.70;9.80;;;;;;;29.77;53.69;100030.02;1687984;83;21085;-60
2021/07/18 08:13:10;;;;;;;15.68;10.28;;;;;;;29.80;53.66;100021.89;1672225;84;21070;-60
2021/07/18 08:15:36;;;;;;;17.65;10.58;;;;;;;29.85;53.21;100031.42;1671959;84;21090;-59
2021/07/18 08:18:03;;;;;;;12.85;10.00;;;;;;;29.94;52.63;100030.39;1676615;84;21141;-59
2021/07/18 08:20:30;;;;;;;12.50;9.03;;;;;;;30.03;50.91;100023.42;1720505;83;21122;-60
2021/07/18 08:22:56;;;;;;;13.60;9.18;;;;;;;30.10;48.89;100015.86;1688038;83;21079;-60
2021/07/18 08:25:25;;;;;;;12.93;9.73;;;;;;;30.20;49.39;100017.83;1654620;84;21081;-60
2021/07/18 08:27:54;;;;;;;10.78;7.53;;;;;;;30.31;48.07;100011.91;1727266;82;21066;-60
2021/07/18 08:30:21;;;;;;;10.38;8.15;;;;;;;30.38;47.06;100011.19;1735800;82;21557;-60
2021/07/18 08:32:47;;;;;;;9.25;7.92;;;;;;;30.48;46.50;100015.83;1721640;82;21075;-59
2021/07/18 08:35:13;;;;;;;11.10;8.65;;;;;;;30.56;46.35;100017.52;1719938;82;21582;-61
2021/07/18 08:37:41;;;;;;;12.90;9.20;;;;;;;30.64;47.04;100017.53;1723576;82;21091;-60
2021/07/18 08:40:10;;;;;;;13.25;9.28;;;;;;;30.72;47.33;100014.86;1719780;82;21095;-60
2021/07/18 08:42:37;;;;;;;12.53;8.43;;;;;;;30.80;47.68;100011.63;1737001;82;21089;-60
2021/07/18 08:45:05;;;;;;;12.45;8.00;;;;;;;30.88;47.06;100009.77;1720017;81;22037;-61
2021/07/18 08:47:32;;;;;;;15.40;7.80;;;;;;;30.96;45.67;100012.52;1740678;82;21039;-61
2021/07/18 08:49:59;;;;;;;10.50;7.70;;;;;;;31.05;45.25;100009.56;1732772;82;22174;-60
2021/07/18 08:52:26;;;;;;;10.03;8.20;;;;;;;31.11;44.33;100006.30;1723877;81;21549;-60
2021/07/18 08:54:53;;;;;;;10.78;7.47;;;;;;;31.17;44.37;100012.03;1729762;82;21106;-60
2021/07/18 08:57:22;;;;;;;10.48;8.73;;;;;;;31.24;43.70;100008.50;1719621;81;21182;-63
2021/07/18 08:59:50;;;;;;;9.63;7.83;;;;;;;31.29;43.78;99999.00;1736258;80;21094;-59
2021/07/18 09:02:16;;;;;;;10.45;7.97;;;;;;;31.36;43.44;99995.20;1737575;82;21521;-60
2021/07/18 09:04:42;;;;;;;10.70;7.97;;;;;;;31.38;42.58;99993.83;1720245;81;21087;-60
2021/07/18 09:07:14;;;;;;;12.45;7.55;;;;;;;31.42;43.53;99993.58;1736461;80;21055;-60
2021/07/18 09:09:39;;;;;;;9.45;7.47;;;;;;;31.48;43.30;99991.11;1734678;80;21110;-60
2021/07/18 09:12:08;;;;;;;11.22;7.78;;;;;;;31.56;42.84;99985.72;1737405;82;21043;-59
2021/07/18 09:14:46;;;;;;;8.43;6.72;;;;;;;31.63;42.96;99986.81;1737025;82;21070;-60
2021/07/18 09:17:18;;;;;;;13.43;8.15;;;;;;;31.68;42.37;99983.28;1734633;82;21605;-59
2021/07/18 09:19:47;;;;;;;9.45;7.22;;;;;;;31.72;42.32;99986.52;1717768;81;21618;-59
2021/07/18 09:22:20;;;;;;;9.45;7.20;;;;;;;31.77;41.48;99987.06;1717367;82;21753;-59
2021/07/18 09:24:50;;;;;;;10.00;7.22;;;;;;;31.82;41.24;99987.05;1737631;81;21342;-60
2021/07/18 09:27:31;;;;;;;7.83;6.67;;;;;;;31.91;41.10;99987.31;1748554;81;21627;-60
2021/07/18 09:30:09;;;;;;;9.25;7.53;;;;;;;31.96;41.84;99981.85;1748580;81;21077;-60
2021/07/18 09:32:38;;;;;;;7.70;6.42;;;;;;;31.98;40.37;99983.22;1726784;81;21133;-60
2021/07/18 09:35:08;;;;;;;8.60;7.42;;;;;;;32.06;39.88;99985.11;1748546;80;21092;-60
2021/07/18 09:37:42;;;;;;;9.83;7.25;;;;;;;32.11;40.64;99986.48;1735958;80;21126;-60
2021/07/18 09:40:13;;;;;;;9.10;6.87;;;;;;;32.19;40.45;99985.92;1741033;81;21472;-60
2021/07/18 09:42:49;;;;;;;11.65;6.67;;;;;;;32.29;40.06;99979.08;1752334;81;21114;-60
2021/07/18 09:45:22;;;;;;;9.08;7.42;;;;;;;32.36;39.91;99977.42;1740752;81;22223;-60
2021/07/18 09:48:05;;;;;;;9.18;7.50;;;;;;;32.43;39.75;99977.96;1747760;80;21100;-60
2021/07/18 09:50:47;;;;;;;8.83;7.07;;;;;;;32.50;40.09;99978.47;1744912;81;20911;-60
2021/07/18 09:53:20;;;;;;;8.48;7.12;;;;;;;32.61;38.98;99977.06;1716624;82;21074;-60
2021/07/18 09:56:12;;;;;;;10.28;7.35;;;;;;;32.62;38.95;99975.45;1692872;84;21169;-60
2021/07/18 09:58:42;;;;;;;9.78;8.35;;;;;;;32.67;39.58;99967.25;1663459;84;21663;-59
2021/07/18 10:01:14;;;;;;;9.40;7.78;;;;;;;32.75;39.38;99972.64;1668329;84;21325;-60
2021/07/18 10:03:49;;;;;;;9.45;6.97;;;;;;;32.81;40.29;99968.80;1686748;83;21091;-59
2021/07/18 10:06:20;;;;;;;8.85;7.37;;;;;;;32.86;38.61;99974.22;1709270;83;21129;-61
2021/07/18 10:08:53;;;;;;;9.13;7.15;;;;;;;32.89;38.31;99974.22;1691720;83;21574;-59
2021/07/18 10:11:22;;;;;;;9.90;6.70;;;;;;;32.93;38.27;99971.19;1692570;84;21613;-59
2021/07/18 10:13:50;;;;;;;9.98;7.85;;;;;;;33.01;39.45;99973.88;1689001;84;21906;-59
2021/07/18 10:16:18;;;;;;;8.40;7.25;;;;;;;33.10;38.95;99976.25;1687722;84;21608;-59
2021/07/18 10:18:48;;;;;;;9.50;7.58;;;;;;;33.19;38.66;99972.40;1660686;84;21160;-59
2021/07/18 10:21:18;;;;;;;11.83;7.10;;;;;;;33.29;38.85;99970.98;1697538;83;21515;-60
2021/07/18 10:23:47;;;;;;;9.50;7.60;;;;;;;33.36;38.41;99971.47;1686418;84;21077;-60
2021/07/18 10:26:16;;;;;;;10.05;7.75;;;;;;;33.40;37.84;99966.25;1683251;84;21155;-59
2021/07/18 10:28:44;;;;;;;9.90;8.13;;;;;;;33.43;38.46;99958.31;1740447;81;21059;-59
2021/07/18 10:31:49;;;;;;;11.50;8.73;;;;;;;33.47;37.89;99958.02;1738752;82;21070;-60
2021/07/18 10:34:16;;;;;;;9.80;7.58;;;;;;;33.50;37.53;99962.87;1727749;82;21050;-59
2021/07/18 10:36:43;;;;;;;11.38;8.45;;;;;;;33.51;37.48;99963.71;1747603;82;21098;-59
2021/07/18 10:39:32;;;;;;;12.30;9.75;;;;;;;33.50;36.98;99956.05;1740604;81;21101;-58
2021/07/18 10:42:01;;;;;;;12.63;8.80;;;;;;;33.53;37.43;99955.25;1728711;82;21106;-59
2021/07/18 10:44:43;;;;;;;10.08;7.33;;;;;;;33.56;37.87;99951.39;1747577;80;21034;-58
2021/07/18 10:47:15;;;;;;;12.98;10.08;;;;;;;33.64;37.07;99948.57;1731230;82;21071;-59
2021/07/18 10:49:58;;;;;;;11.90;9.45;;;;;;;33.69;36.89;99942.56;1721575;82;21102;-59
2021/07/18 10:52:34;;;;;;;14.65;9.05;;;;;;;33.71;36.74;99940.92;1726543;82;21103;-59
2021/07/18 10:55:01;;;;;;;12.78;8.50;;;;;;;33.73;37.68;99927.80;1742333;82;20999;-59
2021/07/18 10:57:33;;;;;;;12.70;9.73;;;;;;;33.76;37.10;99928.59;1736318;82;21016;-59
2021/07/18 11:00:25;;;;;;;11.25;9.15;;;;;;;33.80;36.56;99928.25;1735602;80;21019;-60
2021/07/18 11:03:08;;;;;;;12.05;8.80;;;;;;;33.82;36.35;99927.41;1730722;81;21066;-60
2021/07/18 11:05:45;;;;;;;9.50;7.78;;;;;;;33.84;36.42;99925.76;1734086;82;21055;-59
2021/07/18 11:08:13;;;;;;;8.70;7.45;;;;;;;33.88;36.44;99919.44;1744793;81;21074;-59
2021/07/18 11:10:53;;;;;;;12.55;6.72;;;;;;;33.99;35.77;99913.86;1730113;80;21051;-59
2021/07/18 11:13:23;;;;;;;11.45;7.47;;;;;;;34.06;35.98;99915.68;1710259;82;21063;-58
2021/07/18 11:15:50;;;;;;;8.05;5.58;;;;;;;34.12;34.16;99910.43;1736755;80;21502;-59
2021/07/18 11:18:37;;;;;;;8.80;7.53;;;;;;;34.19;34.38;99904.62;1746864;81;21087;-59
2021/07/18 11:21:03;;;;;;;;;;;;;;;34.31;35.52;99906.39;1741475;82;21641;-59